Time;durP1;ratioP1;P1;durP2;ratioP2;P2;SDS_P1;SDS_P2;PMS_P1;PMS_P2;Temp;Humidity;BMP_temperature;BMP_pressure;BME280_temperature;BME280_humidity;BME280_pressure;Samples;Min_cycle;Max_cycle;Signal;HPM_P1;HPM_P2
2021/01/06 00:00:42;;;;;;;24.00;13.38;;;;;;;3.16;100.00;101854.16;4810112;29;20045;-79
2021/01/06 00:03:13;;;;;;;24.23;13.13;;;;;;;3.14;100.00;101840.25;4817893;29;20129;-79
2021/01/06 00:05:39;;;;;;;23.77;14.38;;;;;;;3.13;100.00;101838.50;4823027;29;20066;-79
2021/01/06 00:08:04;;;;;;;21.55;14.00;;;;;;;3.13;100.00;101848.09;4822831;29;20068;-79
2021/01/06 00:10:30;;;;;;;24.77;15.43;;;;;;;3.15;100.00;101847.19;4808386;29;20760;-78
2021/01/06 00:12:56;;;;;;;24.58;16.55;;;;;;;3.13;100.00;101846.34;4824138;29;20026;-79
2021/01/06 00:15:26;;;;;;;25.45;14.45;;;;;;;3.12;100.00;101847.22;4826307;29;20381;-79
2021/01/06 00:17:51;;;;;;;26.55;15.30;;;;;;;3.04;100.00;101847.19;4807051;29;20066;-79
2021/01/06 00:20:19;;;;;;;29.00;15.68;;;;;;;3.11;100.00;101845.44;4821801;29;20061;-79
2021/01/06 00:22:45;;;;;;;23.50;15.18;;;;;;;3.13;100.00;101843.72;4821836;29;20419;-79
2021/01/06 00:25:21;;;;;;;23.75;14.88;;;;;;;3.11;100.00;101840.22;4820858;29;20121;-79
2021/01/06 00:27:46;;;;;;;27.20;15.57;;;;;;;3.06;100.00;101834.13;4814132;29;20038;-79
2021/01/06 00:30:22;;;;;;;25.35;15.63;;;;;;;3.08;100.00;101830.66;4824336;29;20046;-79
2021/01/06 00:32:48;;;;;;;22.20;14.48;;;;;;;3.11;100.00;101835.91;4818465;29;20046;-79
2021/01/06 00:35:13;;;;;;;20.75;14.20;;;;;;;3.14;100.00;101836.75;4823505;29;20041;-79
2021/01/06 00:37:38;;;;;;;21.83;13.85;;;;;;;3.10;100.00;101831.50;4822749;29;20035;-79
2021/01/06 00:40:05;;;;;;;23.80;14.25;;;;;;;3.16;100.00;101835.00;4822333;29;20456;-79
2021/01/06 00:42:30;;;;;;;19.60;13.60;;;;;;;3.13;100.00;101832.41;4823028;29;20386;-79
2021/01/06 00:44:55;;;;;;;20.63;12.68;;;;;;;3.09;100.00;101837.63;4823918;29;20046;-79
2021/01/06 00:47:21;;;;;;;18.08;12.48;;;;;;;3.06;100.00;101835.00;4825433;29;20072;-79
2021/01/06 00:49:46;;;;;;;20.92;12.70;;;;;;;3.10;100.00;101841.97;4824961;29;20041;-78
2021/01/06 00:52:11;;;;;;;20.08;13.43;;;;;;;3.11;100.00;101837.59;4809402;29;20044;-79
2021/01/06 00:54:38;;;;;;;21.00;12.95;;;;;;;3.16;100.00;101837.63;4805495;29;20109;-79
2021/01/06 00:57:04;;;;;;;19.52;12.73;;;;;;;3.09;100.00;101839.38;4821616;29;20027;-79
2021/01/06 00:59:29;;;;;;;18.70;12.32;;;;;;;3.16;100.00;101840.22;4824154;29;20037;-79
2021/01/06 01:01:54;;;;;;;18.30;12.45;;;;;;;3.07;100.00;101833.28;4816095;29;20150;-79
2021/01/06 01:04:20;;;;;;;22.85;12.60;;;;;;;3.10;100.00;101833.25;4819146;29;20034;-79
2021/01/06 01:06:45;;;;;;;20.88;12.45;;;;;;;3.04;100.00;101841.97;4824899;29;20026;-79
2021/01/06 01:09:10;;;;;;;19.95;12.73;;;;;;;3.08;100.00;101838.50;4822552;29;20026;-79
2021/01/06 01:11:39;;;;;;;23.15;13.05;;;;;;;3.06;100.00;101839.34;4823106;29;20026;-78
2021/01/06 01:14:05;;;;;;;20.75;12.00;;;;;;;3.01;100.00;101838.47;4821842;29;20386;-79
2021/01/06 01:16:30;;;;;;;21.83;12.77;;;;;;;3.12;100.00;101842.00;4820632;29;20038;-79
2021/01/06 01:18:56;;;;;;;19.73;12.30;;;;;;;3.07;100.00;101831.53;4809685;29;20178;-78
2021/01/06 01:21:21;;;;;;;21.60;12.57;;;;;;;3.10;100.00;101828.03;4805757;29;20093;-79
2021/01/06 01:23:47;;;;;;;23.58;13.63;;;;;;;3.05;100.00;101835.00;4815206;29;20035;-79
2021/01/06 01:26:12;;;;;;;22.27;13.57;;;;;;;3.04;100.00;101831.50;4818203;29;20168;-78
2021/01/06 01:28:37;;;;;;;26.17;13.50;;;;;;;3.06;100.00;101834.13;4818427;29;20066;-79
2021/01/06 01:31:03;;;;;;;22.08;14.30;;;;;;;3.02;100.00;101838.47;4806282;29;20069;-78
2021/01/06 01:33:28;;;;;;;25.77;14.75;;;;;;;2.97;100.00;101832.38;4824572;29;20099;-78
2021/01/06 01:35:54;;;;;;;24.45;13.48;;;;;;;3.02;100.00;101840.22;4827986;29;20555;-78
2021/01/06 01:38:22;;;;;;;19.80;12.80;;;;;;;3.02;100.00;101835.00;4821459;29;20094;-79
2021/01/06 01:40:57;;;;;;;25.17;14.82;;;;;;;2.99;100.00;101832.38;4821278;29;20126;-79
2021/01/06 01:43:22;;;;;;;19.75;13.38;;;;;;;3.06;100.00;101836.72;4825806;29;20045;-79
2021/01/06 01:45:50;;;;;;;21.77;13.90;;;;;;;3.02;100.00;101837.63;4821453;29;20038;-79
2021/01/06 01:48:27;;;;;;;21.63;12.85;;;;;;;3.00;100.00;101831.50;4822587;29;20119;-79
2021/01/06 01:50:56;;;;;;;19.73;12.82;;;;;;;2.99;100.00;101834.97;4822084;29;20173;-79
2021/01/06 01:53:31;;;;;;;21.67;13.10;;;;;;;2.97;100.00;101834.13;4802142;29;20039;-79
2021/01/06 01:55:58;;;;;;;25.23;13.55;;;;;;;2.98;100.00;101830.63;4820776;29;20038;-79
2021/01/06 01:58:27;;;;;;;23.58;12.50;;;;;;;2.95;100.00;101843.66;4814376;29;20097;-79
2021/01/06 02:00:55;;;;;;;18.70;12.15;;;;;;;2.95;100.00;101839.31;4824528;29;20073;-79
2021/01/06 02:03:31;;;;;;;22.75;12.43;;;;;;;2.96;100.00;101842.78;4815567;29;20043;-79
2021/01/06 02:06:06;;;;;;;23.75;12.52;;;;;;;2.93;100.00;101840.19;4808243;29;20095;-79
2021/01/06 02:08:36;;;;;;;20.17;12.35;;;;;;;2.87;100.00;101834.97;4789007;29;20051;-78
2021/01/06 02:11:06;;;;;;;22.88;11.77;;;;;;;2.88;100.00;101841.91;4785815;29;20629;-78
2021/01/06 02:13:38;;;;;;;24.10;13.82;;;;;;;2.91;100.00;101834.94;4806467;29;20109;-78
2021/01/06 02:16:31;;;;;;;18.52;11.60;;;;;;;2.88;100.00;101841.91;4808058;29;20034;-78
2021/01/06 02:18:56;;;;;;;20.15;11.60;;;;;;;2.82;100.00;101840.16;4803231;29;20428;-78
2021/01/06 02:21:25;;;;;;;21.08;12.07;;;;;;;2.53;100.00;101842.66;4803468;29;20046;-78
2021/01/06 02:23:52;;;;;;;24.00;12.27;;;;;;;2.52;100.00;101840.91;4809384;29;20491;-79
2021/01/06 02:26:20;;;;;;;15.60;11.27;;;;;;;2.45;100.00;101840.00;4805985;29;20050;-78
2021/01/06 02:28:47;;;;;;;18.75;9.93;;;;;;;2.38;100.00;101833.00;4806351;29;20103;-80
2021/01/06 02:31:12;;;;;;;16.20;11.13;;;;;;;2.46;100.00;101836.53;4795674;29;20066;-80
2021/01/06 02:33:39;;;;;;;21.08;12.93;;;;;;;2.43;100.00;101833.91;4801913;29;20031;-80
2021/01/06 02:36:05;;;;;;;18.98;11.70;;;;;;;2.41;100.00;101834.75;4795368;29;20072;-79
2021/01/06 02:38:31;;;;;;;17.67;11.48;;;;;;;2.45;100.00;101831.28;4810257;29;20388;-79
2021/01/06 02:40:57;;;;;;;18.02;11.38;;;;;;;2.45;100.00;101834.78;4797837;29;20042;-79
2021/01/06 02:43:24;;;;;;;19.17;11.25;;;;;;;2.51;100.00;101832.22;4792822;29;20484;-80
2021/01/06 02:45:50;;;;;;;20.50;11.77;;;;;;;2.47;100.00;101826.97;4797320;29;20042;-80
2021/01/06 02:48:17;;;;;;;21.38;12.35;;;;;;;2.56;100.00;101829.59;4802887;29;20031;-79
2021/01/06 02:50:45;;;;;;;19.60;11.30;;;;;;;2.50;100.00;101822.63;4798913;29;20039;-78
2021/01/06 02:53:17;;;;;;;18.80;11.63;;;;;;;2.52;100.00;101827.88;4798682;29;20100;-79
2021/01/06 02:55:47;;;;;;;17.92;11.27;;;;;;;2.53;100.00;101824.38;4797243;29;20038;-79
2021/01/06 02:58:16;;;;;;;22.80;11.23;;;;;;;2.54;100.00;101826.13;4800120;29;20043;-79
2021/01/06 03:00:41;;;;;;;21.40;12.20;;;;;;;2.51;100.00;101820.88;4802275;29;20430;-79
2021/01/06 03:03:10;;;;;;;18.80;12.20;;;;;;;2.54;100.00;101826.13;4814890;29;20115;-79
2021/01/06 03:05:39;;;;;;;20.65;12.32;;;;;;;2.56;100.00;101821.78;4820059;29;20060;-79
2021/01/06 03:08:13;;;;;;;18.90;10.75;;;;;;;2.59;100.00;101827.00;4823895;29;20075;-79
2021/01/06 03:10:39;;;;;;;18.08;11.70;;;;;;;2.60;100.00;101816.56;4805277;29;20418;-80
2021/01/06 03:13:05;;;;;;;17.80;10.50;;;;;;;2.55;100.00;101815.69;4823666;29;20050;-79
2021/01/06 03:15:30;;;;;;;17.65;11.38;;;;;;;2.54;100.00;101829.59;4806142;29;20034;-78
2021/01/06 03:17:58;;;;;;;21.45;11.13;;;;;;;2.54;100.00;101819.16;4821837;29;20034;-79
2021/01/06 03:20:42;;;;;;;19.77;10.63;;;;;;;2.56;100.00;101824.38;4820583;29;20046;-79
2021/01/06 03:23:14;;;;;;;13.95;10.48;;;;;;;2.52;100.00;101826.13;4824032;29;20031;-79
2021/01/06 03:25:41;;;;;;;18.33;10.93;;;;;;;2.57;100.00;101820.94;4822254;29;20467;-80
2021/01/06 03:28:09;;;;;;;16.85;10.13;;;;;;;2.49;100.00;101817.41;4821902;29;20083;-79
2021/01/06 03:30:35;;;;;;;15.55;10.00;;;;;;;2.50;100.00;101811.31;4815541;29;20037;-79
2021/01/06 03:33:22;;;;;;;15.07;10.00;;;;;;;2.51;100.00;101807.81;4801162;29;20446;-79
2021/01/06 03:35:55;;;;;;;16.13;10.13;;;;;;;2.48;100.00;101810.44;4814099;29;20034;-79
2021/01/06 03:38:42;;;;;;;16.45;10.95;;;;;;;2.45;100.00;101802.59;4794192;29;20041;-79
2021/01/06 03:41:09;;;;;;;13.05;9.43;;;;;;;2.42;100.00;101810.44;4816669;29;20195;-79
2021/01/06 03:43:41;;;;;;;13.57;8.68;;;;;;;2.37;100.00;101806.94;4816630;29;20034;-79
2021/01/06 03:46:19;;;;;;;14.32;9.50;;;;;;;2.38;100.00;101806.91;4805598;29;20057;-79
2021/01/06 03:48:54;;;;;;;13.20;9.10;;;;;;;2.41;100.00;101798.22;4808998;29;20030;-79
2021/01/06 03:51:45;;;;;;;15.20;8.90;;;;;;;2.43;100.00;101806.94;4816759;29;20446;-79
2021/01/06 03:54:23;;;;;;;15.73;9.10;;;;;;;2.35;100.00;101806.88;4820631;29;20117;-79
2021/01/06 03:56:50;;;;;;;18.27;9.90;;;;;;;2.31;100.00;101813.00;4820085;29;20129;-78
2021/01/06 03:59:24;;;;;;;15.85;8.95;;;;;;;2.32;100.00;101807.75;4817812;29;20041;-79
2021/01/06 04:02:05;;;;;;;15.20;10.02;;;;;;;2.33;100.00;101808.63;4818857;29;20038;-79
2021/01/06 04:04:42;;;;;;;14.32;10.20;;;;;;;2.30;100.00;101803.38;4797528;29;20034;-80
2021/01/06 04:07:39;;;;;;;16.08;9.93;;;;;;;2.29;100.00;101804.25;4807109;29;20039;-80
2021/01/06 04:10:12;;;;;;;14.10;9.40;;;;;;;2.29;100.00;101799.91;4796005;29;20043;-79
2021/01/06 04:12:38;;;;;;;12.88;9.57;;;;;;;2.28;100.00;101800.78;4800727;29;20066;-79
2021/01/06 04:15:06;;;;;;;13.98;8.95;;;;;;;2.34;100.00;101799.94;4805103;29;20034;-80
2021/01/06 04:17:40;;;;;;;14.02;9.32;;;;;;;2.22;100.00;101799.91;4781282;29;20026;-79
2021/01/06 04:20:23;;;;;;;15.20;10.20;;;;;;;2.20;100.00;101796.38;4801741;29;20049;-79
2021/01/06 04:22:54;;;;;;;16.13;11.15;;;;;;;2.22;100.00;101803.38;4796946;29;20065;-80
2021/01/06 04:25:24;;;;;;;14.77;9.50;;;;;;;2.23;100.00;101794.66;4801813;29;20490;-79
2021/01/06 04:27:53;;;;;;;14.13;9.07;;;;;;;2.23;100.00;101796.41;4801691;29;20033;-79
2021/01/06 04:30:45;;;;;;;15.15;9.77;;;;;;;2.15;100.00;101785.94;4804766;29;20416;-79
2021/01/06 04:33:20;;;;;;;14.00;9.60;;;;;;;2.14;100.00;101793.75;4744290;30;20048;-79
2021/01/06 04:35:46;;;;;;;16.23;9.80;;;;;;;2.13;100.00;101790.28;4747945;30;20170;-79
2021/01/06 04:38:17;;;;;;;14.95;9.15;;;;;;;2.22;100.00;101797.28;4750747;30;20358;-79
2021/01/06 04:40:46;;;;;;;14.43;9.10;;;;;;;2.23;100.00;101799.03;4753338;30;20387;-79
2021/01/06 04:43:41;;;;;;;14.27;9.38;;;;;;;2.12;100.00;101801.56;4754283;30;20031;-79
2021/01/06 04:46:41;;;;;;;12.38;8.48;;;;;;;2.11;100.00;101791.13;4749370;30;20063;-79
2021/01/06 04:49:19;;;;;;;16.25;9.38;;;;;;;2.05;100.00;101794.56;4751426;30;20040;-79
2021/01/06 04:51:57;;;;;;;13.75;9.48;;;;;;;2.11;100.00;101794.63;4749058;30;20051;-79
2021/01/06 04:54:30;;;;;;;16.38;9.15;;;;;;;2.08;100.00;101794.59;4751425;30;20051;-80
2021/01/06 04:57:08;;;;;;;13.05;9.20;;;;;;;2.11;100.00;101796.31;4754322;30;20043;-79
2021/01/06 04:59:49;;;;;;;15.95;9.05;;;;;;;2.05;100.00;101794.56;4753531;30;20552;-79
2021/01/06 05:02:59;;;;;;;14.25;8.85;;;;;;;2.03;100.00;101801.53;4747296;30;20116;-79
2021/01/06 05:05:33;;;;;;;10.65;8.30;;;;;;;2.04;100.00;101795.44;4732134;30;20136;-79
2021/01/06 05:08:13;;;;;;;15.23;8.63;;;;;;;2.03;100.00;101801.53;4744065;30;20501;-79
2021/01/06 05:10:51;;;;;;;14.73;9.98;;;;;;;2.08;100.00;101800.69;4785027;29;20057;-78
2021/01/06 05:13:35;;;;;;;14.65;9.13;;;;;;;2.00;100.00;101798.88;4804667;29;20113;-79
2021/01/06 05:16:06;;;;;;;11.68;8.80;;;;;;;1.95;100.00;101801.44;4804151;29;20130;-79
2021/01/06 05:18:31;;;;;;;23.95;9.23;;;;;;;1.96;100.00;101802.34;4808158;29;20095;-79
2021/01/06 05:20:57;;;;;;;14.82;9.80;;;;;;;1.94;100.00;101797.09;4803418;29;20595;-79
2021/01/06 05:23:27;;;;;;;12.85;8.23;;;;;;;2.01;100.00;101806.72;4805418;29;20043;-79
2021/01/06 05:25:53;;;;;;;13.05;8.20;;;;;;;1.98;100.00;101798.88;4803919;29;20475;-79
2021/01/06 05:28:22;;;;;;;14.82;8.15;;;;;;;2.03;100.00;101791.97;4787708;29;20034;-79
2021/01/06 05:30:52;;;;;;;15.63;8.18;;;;;;;1.93;100.00;101795.38;4791647;29;20054;-79
2021/01/06 05:33:24;;;;;;;14.30;8.75;;;;;;;2.00;100.00;101796.28;4807680;29;20038;-79
2021/01/06 05:35:49;;;;;;;12.93;8.73;;;;;;;2.05;100.00;101791.97;4804480;29;21457;-78
2021/01/06 05:38:15;;;;;;;15.75;9.55;;;;;;;1.99;100.00;101795.41;4803856;29;20144;-79
2021/01/06 05:40:42;;;;;;;12.45;8.75;;;;;;;1.96;100.00;101792.78;4801878;29;20026;-79
2021/01/06 05:43:27;;;;;;;12.77;8.50;;;;;;;2.04;100.00;101791.09;4791585;29;20038;-79
2021/01/06 05:45:56;;;;;;;15.38;8.60;;;;;;;2.03;100.00;101796.31;4790842;29;20088;-78
2021/01/06 05:48:35;;;;;;;16.45;9.15;;;;;;;2.02;100.00;101789.34;4803503;29;20030;-79
2021/01/06 05:51:41;;;;;;;13.57;9.00;;;;;;;1.93;100.00;101802.31;4804607;29;20039;-79
2021/01/06 05:54:43;;;;;;;12.90;9.07;;;;;;;1.95;100.00;101798.84;4799504;29;20058;-79
2021/01/06 05:57:20;;;;;;;16.23;9.63;;;;;;;1.94;100.00;101798.84;4799002;29;20066;-79
2021/01/06 05:59:49;;;;;;;17.67;9.65;;;;;;;1.91;100.00;101797.09;4787424;29;20088;-79
2021/01/06 06:02:40;;;;;;;15.52;9.60;;;;;;;1.92;100.00;101798.84;4800008;29;20948;-79
2021/01/06 06:05:15;;;;;;;13.10;8.70;;;;;;;1.86;100.00;101805.72;4800575;29;20070;-79
2021/01/06 06:07:59;;;;;;;14.00;10.18;;;;;;;1.93;100.00;101792.75;4822182;29;20471;-79
2021/01/06 06:10:53;;;;;;;15.60;10.35;;;;;;;1.92;100.00;101791.03;4806917;29;20041;-79
2021/01/06 06:13:52;;;;;;;13.10;8.45;;;;;;;1.88;100.00;101806.63;4827749;29;20045;-80
2021/01/06 06:16:26;;;;;;;15.60;9.32;;;;;;;1.97;100.00;101794.53;4820031;29;20031;-79
2021/01/06 06:19:09;;;;;;;16.85;10.07;;;;;;;1.90;100.00;101797.06;4826746;29;20500;-79
2021/01/06 06:21:44;;;;;;;13.15;9.32;;;;;;;1.87;100.00;101800.56;4821103;29;20042;-79
2021/01/06 06:24:31;;;;;;;13.77;9.63;;;;;;;1.83;100.00;101803.13;4819994;29;20302;-79
2021/01/06 06:27:30;;;;;;;16.80;10.35;;;;;;;1.81;100.00;101801.38;4821448;29;20515;-79
2021/01/06 06:30:11;;;;;;;16.45;9.57;;;;;;;1.91;100.00;101798.81;4822915;29;20041;-80
2021/01/06 06:32:39;;;;;;;15.65;9.48;;;;;;;1.89;100.00;101813.59;4835831;29;20041;-80
2021/01/06 06:35:15;;;;;;;13.38;9.02;;;;;;;1.89;100.00;101808.38;4825452;29;20058;-79
2021/01/06 06:37:54;;;;;;;12.80;9.00;;;;;;;1.93;100.00;101805.81;4824829;29;20599;-79
2021/01/06 06:40:20;;;;;;;17.23;9.40;;;;;;;1.91;100.00;101809.25;4800409;29;20042;-79
2021/01/06 06:42:55;;;;;;;14.68;9.02;;;;;;;1.85;100.00;101814.41;4822438;29;20051;-80
2021/01/06 06:45:39;;;;;;;14.38;8.73;;;;;;;1.93;100.00;101820.56;4829499;29;20431;-79
2021/01/06 06:48:40;;;;;;;15.27;9.68;;;;;;;1.86;100.00;101819.66;4803359;29;20066;-79
2021/01/06 06:51:17;;;;;;;14.30;9.77;;;;;;;1.85;100.00;101817.91;4756447;30;20036;-78
2021/01/06 06:53:57;;;;;;;16.27;10.07;;;;;;;1.93;100.00;101821.44;4808368;29;20039;-78
2021/01/06 06:56:35;;;;;;;17.58;9.82;;;;;;;1.97;100.00;101828.44;4817097;29;20518;-78
2021/01/06 06:59:13;;;;;;;14.98;9.27;;;;;;;1.96;100.00;101828.44;4818513;29;20034;-78
2021/01/06 07:01:42;;;;;;;15.73;9.68;;;;;;;1.94;100.00;101827.53;4820816;29;20518;-78
2021/01/06 07:04:20;;;;;;;21.35;10.93;;;;;;;1.87;100.00;101831.84;4821510;29;20038;-78
2021/01/06 07:06:52;;;;;;;16.58;9.38;;;;;;;1.98;100.00;101818.88;4808538;29;20097;-78
2021/01/06 07:09:25;;;;;;;14.77;8.77;;;;;;;1.89;100.00;101826.63;4804214;29;20038;-78
2021/01/06 07:12:03;;;;;;;16.02;9.27;;;;;;;1.95;100.00;101829.25;4814443;29;20058;-78
2021/01/06 07:14:35;;;;;;;14.48;8.35;;;;;;;1.88;100.00;101830.09;4803237;29;20053;-78
2021/01/06 07:17:08;;;;;;;16.23;9.68;;;;;;;1.91;100.00;101832.72;4821227;29;20050;-78
2021/01/06 07:19:38;;;;;;;13.88;9.23;;;;;;;1.91;100.00;101828.41;4822795;29;20079;-78
2021/01/06 07:22:19;;;;;;;15.18;9.15;;;;;;;1.90;100.00;101830.97;4821478;29;20053;-79
2021/01/06 07:24:54;;;;;;;14.07;9.02;;;;;;;1.89;100.00;101837.91;4804232;29;20034;-79
2021/01/06 07:27:20;;;;;;;13.82;9.32;;;;;;;1.92;100.00;101829.25;4820441;29;20038;-79
2021/01/06 07:29:51;;;;;;;12.80;9.00;;;;;;;1.91;100.00;101832.72;4807669;29;20122;-78
2021/01/06 07:32:18;;;;;;;15.88;9.25;;;;;;;1.86;100.00;101832.72;4811732;29;20034;-78
2021/01/06 07:34:52;;;;;;;13.75;9.02;;;;;;;1.85;100.00;101833.53;4816009;29;20049;-78
2021/01/06 07:37:28;;;;;;;13.93;7.82;;;;;;;1.78;100.00;101837.84;4802693;29;20053;-78
2021/01/06 07:39:59;;;;;;;16.45;8.88;;;;;;;1.83;100.00;101837.00;4801587;29;20088;-78
2021/01/06 07:42:38;;;;;;;13.60;9.57;;;;;;;1.78;100.00;101834.38;4817369;29;20038;-78
2021/01/06 07:45:16;;;;;;;14.15;9.27;;;;;;;1.77;100.00;101836.09;4818287;29;20073;-78
2021/01/06 07:47:50;;;;;;;14.80;9.80;;;;;;;1.75;100.00;101845.63;4819612;29;20041;-78
2021/01/06 07:50:22;;;;;;;14.25;9.55;;;;;;;1.78;100.00;101843.06;4820551;29;20395;-79
2021/01/06 07:52:54;;;;;;;14.02;9.98;;;;;;;1.78;100.00;101850.00;4819092;29;20442;-79
2021/01/06 07:55:34;;;;;;;16.33;9.10;;;;;;;1.90;100.00;101850.09;4824104;29;20031;-79
2021/01/06 07:58:14;;;;;;;15.00;9.77;;;;;;;1.80;100.00;101845.66;4814129;29;20031;-78
2021/01/06 08:00:46;;;;;;;17.15;9.73;;;;;;;1.78;100.00;101853.47;4824504;29;20512;-79
2021/01/06 08:03:20;;;;;;;14.73;9.50;;;;;;;1.69;100.00;101855.16;4817927;29;20495;-79
2021/01/06 08:05:55;;;;;;;10.93;7.82;;;;;;;1.63;100.00;101853.38;4819664;29;20034;-79
2021/01/06 08:08:21;;;;;;;11.03;7.37;;;;;;;1.59;100.00;101856.78;4800514;29;20078;-79
2021/01/06 08:10:49;;;;;;;19.17;9.55;;;;;;;1.65;100.00;101858.56;4820944;29;20297;-79
2021/01/06 08:13:28;;;;;;;14.50;9.73;;;;;;;1.62;100.00;101858.56;4823967;29;20062;-79
2021/01/06 08:16:06;;;;;;;15.50;9.18;;;;;;;1.65;100.00;101867.25;4821874;29;20048;-79
2021/01/06 08:18:35;;;;;;;15.88;9.77;;;;;;;1.69;100.00;101866.44;4821682;29;20376;-79
2021/01/06 08:21:11;;;;;;;13.48;9.75;;;;;;;1.72;100.00;101858.66;4830086;29;20126;-79
2021/01/06 08:23:53;;;;;;;15.10;10.10;;;;;;;1.69;100.00;101865.56;4840094;29;20038;-79
2021/01/06 08:26:24;;;;;;;16.27;10.65;;;;;;;1.70;100.00;101873.38;4831415;29;20034;-78
2021/01/06 08:28:50;;;;;;;18.63;9.70;;;;;;;1.71;100.00;101875.16;4828547;29;20105;-79
2021/01/06 08:31:17;;;;;;;16.80;10.07;;;;;;;1.79;100.00;101878.69;4825440;29;20566;-79
2021/01/06 08:33:49;;;;;;;15.15;9.57;;;;;;;1.73;100.00;101875.16;4810028;29;20061;-79
2021/01/06 08:36:22;;;;;;;16.67;9.18;;;;;;;1.72;100.00;101878.63;4823404;29;20095;-79
2021/01/06 08:38:47;;;;;;;14.60;9.57;;;;;;;1.78;100.00;101878.69;4817516;29;20042;-81
2021/01/06 08:41:22;;;;;;;14.13;9.55;;;;;;;1.63;100.00;101884.63;4832468;29;20155;-80
2021/01/06 08:43:48;;;;;;;15.38;8.75;;;;;;;1.65;100.00;101887.25;4827265;29;20045;-79
2021/01/06 08:46:23;;;;;;;12.35;8.55;;;;;;;1.66;100.00;101883.81;4834356;29;20038;-79
2021/01/06 08:48:48;;;;;;;14.27;8.40;;;;;;;1.68;100.00;101888.16;4821395;29;20030;-79
2021/01/06 08:51:16;;;;;;;12.52;9.00;;;;;;;1.65;100.00;101882.91;4823407;29;20034;-79
2021/01/06 08:53:43;;;;;;;12.57;8.63;;;;;;;1.68;100.00;101884.69;4826050;29;20395;-79
2021/01/06 08:56:23;;;;;;;11.90;8.68;;;;;;;1.70;100.00;101888.16;4829244;29;20049;-80
2021/01/06 08:58:51;;;;;;;18.10;10.90;;;;;;;1.68;100.00;101876.84;4814059;29;20133;-80
2021/01/06 09:01:33;;;;;;;15.55;10.25;;;;;;;1.78;100.00;101879.56;4805569;29;20030;-79
2021/01/06 09:04:17;;;;;;;14.90;9.27;;;;;;;1.74;100.00;101888.19;4805763;29;20110;-79
2021/01/06 09:06:50;;;;;;;14.73;9.85;;;;;;;1.79;100.00;101888.25;4793569;29;20031;-79
2021/01/06 09:09:42;;;;;;;14.93;8.98;;;;;;;1.76;100.00;101893.44;4800851;29;20277;-79
2021/01/06 09:12:35;;;;;;;13.43;9.13;;;;;;;1.68;100.00;101888.16;4803389;29;20476;-79
2021/01/06 09:15:04;;;;;;;12.00;7.97;;;;;;;1.68;100.00;101887.28;4787523;29;20134;-80
2021/01/06 09:17:44;;;;;;;17.98;11.38;;;;;;;1.65;100.00;101890.72;4803227;29;20444;-80
2021/01/06 09:20:18;;;;;;;14.63;9.32;;;;;;;1.64;100.00;101888.97;4788709;29;20039;-81
2021/01/06 09:22:44;;;;;;;12.80;8.55;;;;;;;1.72;100.00;101887.31;4798022;29;20034;-80
2021/01/06 09:25:14;;;;;;;16.00;9.13;;;;;;;1.78;100.00;101878.69;4823191;29;20056;-81
2021/01/06 09:27:43;;;;;;;13.82;8.35;;;;;;;1.69;100.00;101894.25;4811913;29;20026;-81
2021/01/06 09:30:15;;;;;;;10.77;7.60;;;;;;;1.80;100.00;101884.78;4833169;29;20059;-81
2021/01/06 09:32:43;;;;;;;16.27;9.13;;;;;;;1.77;100.00;101884.75;4808199;29;20042;-80
2021/01/06 09:35:13;;;;;;;16.25;9.75;;;;;;;1.73;100.00;101896.88;4822776;29;20054;-80
2021/01/06 09:37:56;;;;;;;14.93;9.38;;;;;;;1.67;100.00;101885.53;4823424;29;20114;-79
2021/01/06 09:40:23;;;;;;;14.45;9.32;;;;;;;1.75;100.00;101889.06;4817252;29;20033;-79
2021/01/06 09:42:57;;;;;;;14.57;8.95;;;;;;;1.84;100.00;101893.50;4802614;29;20752;-79
2021/01/06 09:45:24;;;;;;;13.55;8.23;;;;;;;1.77;100.00;101889.97;4785874;29;20180;-81
2021/01/06 09:47:55;;;;;;;15.43;9.45;;;;;;;1.86;100.00;101896.97;4792302;29;20041;-80
2021/01/06 09:50:36;;;;;;;12.80;8.32;;;;;;;1.92;100.00;101890.09;4796504;29;20428;-79
2021/01/06 09:53:05;;;;;;;13.52;8.80;;;;;;;1.93;100.00;101889.22;4785937;29;20490;-79
2021/01/06 09:55:31;;;;;;;15.00;9.32;;;;;;;2.02;100.00;101888.44;4805460;29;20135;-81
2021/01/06 09:58:11;;;;;;;12.95;8.73;;;;;;;2.14;100.00;101885.03;4803137;29;20117;-80
2021/01/06 10:00:59;;;;;;;12.88;8.68;;;;;;;2.21;100.00;101879.88;4796221;29;20038;-81
2021/01/06 10:03:34;;;;;;;10.93;8.05;;;;;;;2.32;99.70;101883.44;4800839;29;20058;-80
2021/01/06 10:06:18;;;;;;;13.35;8.93;;;;;;;2.42;98.89;101876.53;4817107;29;20045;-80
2021/01/06 10:09:03;;;;;;;10.88;7.22;;;;;;;2.56;98.48;101874.88;4814859;29;20035;-81
2021/01/06 10:11:55;;;;;;;25.48;11.70;;;;;;;2.79;97.80;101864.50;4823111;29;20050;-80
2021/01/06 10:14:31;;;;;;;23.58;12.50;;;;;;;2.90;97.35;101864.53;4807776;29;20023;-80
2021/01/06 10:17:20;;;;;;;15.13;9.90;;;;;;;3.04;96.74;101870.69;4800086;29;20046;-80
2021/01/06 10:19:57;;;;;;;17.00;8.98;;;;;;;3.06;96.75;101858.53;4819330;29;20103;-82
2021/01/06 10:22:43;;;;;;;17.65;9.00;;;;;;;3.08;96.08;101871.56;4819477;29;20038;-80
2021/01/06 10:25:17;;;;;;;12.57;8.65;;;;;;;3.05;96.25;101855.88;4798985;29;20112;-79
2021/01/06 10:28:00;;;;;;;16.42;11.15;;;;;;;3.10;96.79;101855.03;4809880;29;20042;-80
2021/01/06 10:30:28;;;;;;;15.13;9.18;;;;;;;3.07;97.34;101854.16;4820303;29;20165;-79
2021/01/06 10:33:11;;;;;;;12.23;8.43;;;;;;;3.07;96.66;101844.59;4816813;29;20338;-79
2021/01/06 10:35:46;;;;;;;10.95;7.63;;;;;;;2.99;96.39;101846.28;4804991;29;20212;-80
2021/01/06 10:38:32;;;;;;;13.52;9.68;;;;;;;2.82;96.44;101842.78;4819792;29;20528;-79
2021/01/06 10:41:18;;;;;;;14.32;8.88;;;;;;;2.91;96.60;101842.78;4807228;29;20120;-79
2021/01/06 10:43:46;;;;;;;17.98;12.07;;;;;;;3.00;96.70;101842.81;4800940;29;20064;-81
2021/01/06 10:46:33;;;;;;;14.25;8.70;;;;;;;3.05;96.27;101838.47;4825443;29;20051;-79
2021/01/06 10:48:58;;;;;;;18.75;9.88;;;;;;;3.24;95.90;101839.38;4825796;29;20395;-80
2021/01/06 10:51:49;;;;;;;11.65;7.88;;;;;;;3.30;94.94;101828.94;4822994;29;20122;-80
2021/01/06 10:54:23;;;;;;;14.35;7.43;;;;;;;3.27;94.44;101834.19;4808718;29;20042;-79
2021/01/06 10:56:49;;;;;;;17.17;8.38;;;;;;;3.32;94.80;101829.84;4813515;29;20030;-80
2021/01/06 10:59:15;;;;;;;17.40;8.50;;;;;;;3.30;95.04;101821.09;4815920;29;20352;-80
2021/01/06 11:02:23;;;;;;;11.15;8.30;;;;;;;3.29;94.81;101827.19;4819578;29;20518;-79
2021/01/06 11:05:00;;;;;;;12.50;8.60;;;;;;;3.46;94.94;101821.97;4782934;29;20059;-79
2021/01/06 11:07:47;;;;;;;13.65;8.75;;;;;;;3.70;94.03;101818.50;4800077;29;20038;-79
2021/01/06 11:10:28;;;;;;;18.85;9.68;;;;;;;3.76;94.02;101813.25;4784949;29;20311;-79
2021/01/06 11:13:46;;;;;;;20.65;8.38;;;;;;;3.63;93.97;101804.56;4785630;29;20057;-79
2021/01/06 11:16:16;;;;;;;;;;;;;;;3.49;94.01;101806.31;4735083;30;20139;-79
2021/01/06 11:18:47;;;;;;;15.80;7.53;;;;;;;3.45;95.24;101801.06;4743571;30;20052;-79
2021/01/06 11:21:23;;;;;;;11.20;7.00;;;;;;;3.37;94.87;101801.09;4742548;30;20056;-79
2021/01/06 11:23:49;;;;;;;15.07;7.65;;;;;;;3.42;95.50;101801.97;4745028;30;20047;-78
2021/01/06 11:26:20;;;;;;;11.50;7.32;;;;;;;3.33;95.42;101800.22;4746087;30;20191;-79
2021/01/06 11:29:04;;;;;;;13.65;8.35;;;;;;;3.31;96.28;101794.13;4743236;30;20102;-79
2021/01/06 11:31:33;;;;;;;11.43;7.90;;;;;;;3.34;97.04;101788.88;4742434;30;20040;-79
2021/01/06 11:34:07;;;;;;;12.55;7.78;;;;;;;3.33;95.62;101788.88;4739943;30;20055;-79
2021/01/06 11:36:44;;;;;;;10.95;7.95;;;;;;;3.34;95.39;101785.41;4742112;30;20044;-79
2021/01/06 11:39:36;;;;;;;11.07;6.78;;;;;;;3.24;96.22;101779.28;4728020;30;20040;-79
2021/01/06 11:42:12;;;;;;;11.70;7.32;;;;;;;3.32;96.11;101784.53;4723332;30;20567;-79
2021/01/06 11:44:47;;;;;;;13.57;8.10;;;;;;;3.26;95.62;101781.91;4728028;30;20626;-80